createdAt,value
2022-12-24T00:01:13.413Z,99075.63
2022-12-24T00:03:44.219Z,99074.80
2022-12-24T00:06:19.390Z,99072.59
2022-12-24T00:08:51.063Z,99071.75
2022-12-24T00:11:22.823Z,99081.11
2022-12-24T00:13:53.572Z,99085.92
2022-12-24T00:16:24.322Z,99090.34
2022-12-24T00:18:55.382Z,99105.96
2022-12-24T00:21:25.949Z,99104.23
2022-12-24T00:23:56.533Z,99100.61
2022-12-24T00:26:27.217Z,99100.89
2022-12-24T00:28:58.019Z,99100.70
2022-12-24T00:31:29.330Z,99112.10
2022-12-24T00:34:00.137Z,99116.38
2022-12-24T00:36:30.829Z,99117.46
2022-12-24T00:39:01.649Z,99107.04
2022-12-24T00:41:32.325Z,99103.38
2022-12-24T00:44:05.889Z,99107.55
2022-12-24T00:46:37.841Z,99104.98
2022-12-24T00:49:09.593Z,99102.90
2022-12-24T00:51:40.483Z,99115.33
2022-12-24T00:54:11.740Z,99116.90
2022-12-24T00:56:42.546Z,99123.66
2022-12-24T00:59:13.183Z,99129.34
2022-12-24T01:01:43.985Z,99131.54
2022-12-24T01:04:32.744Z,99134.14
2022-12-24T01:07:03.486Z,99143.03
2022-12-24T01:09:34.178Z,99147.13
2022-12-24T01:12:05.345Z,99148.38
2022-12-24T01:14:36.162Z,99152.23
2022-12-24T01:17:06.808Z,99155.58
2022-12-24T01:19:37.759Z,99161.88
2022-12-24T01:22:08.403Z,99166.24
2022-12-24T01:24:39.365Z,99167.45
2022-12-24T01:27:10.323Z,99169.92
2022-12-24T01:29:41.044Z,99181.80
2022-12-24T01:32:11.664Z,99179.67
2022-12-24T01:34:42.403Z,99173.52
2022-12-24T01:37:13.030Z,99173.24
2022-12-24T01:39:43.677Z,99181.92
2022-12-24T01:42:42.562Z,99185.27
2022-12-24T01:45:44.902Z,99190.85
2022-12-24T01:48:24.010Z,99196.16
2022-12-24T01:50:59.040Z,99197.59
2022-12-24T01:53:30.906Z,99204.84
2022-12-24T01:56:02.331Z,99208.96
2022-12-24T01:58:33.612Z,99214.77
2022-12-24T02:01:04.777Z,99212.09
2022-12-24T02:03:35.623Z,99219.27
2022-12-24T02:06:08.887Z,99223.13
2022-12-24T02:08:42.552Z,99220.75
2022-12-24T02:11:16.359Z,99219.02
2022-12-24T02:13:52.376Z,99217.50
2022-12-24T02:16:36.989Z,99223.23
2022-12-24T02:19:35.995Z,99223.12
2022-12-24T02:22:10.599Z,99230.70
2022-12-24T02:25:03.783Z,99236.19
2022-12-24T02:27:48.943Z,99240.48
2022-12-24T02:30:23.099Z,99240.60
2022-12-24T02:33:19.287Z,99243.73
2022-12-24T02:35:54.895Z,99247.58
2022-12-24T02:38:30.423Z,99255.04
2022-12-24T02:41:07.453Z,99258.05
2022-12-24T02:43:43.566Z,99265.73
2022-12-24T02:46:18.242Z,99272.14
2022-12-24T02:48:51.073Z,99281.02
2022-12-24T02:51:23.510Z,99281.23
2022-12-24T02:53:54.225Z,99284.75
2022-12-24T02:56:43.810Z,99283.04
2022-12-24T02:59:50.660Z,99284.91
2022-12-24T03:02:29.131Z,99289.21
2022-12-24T03:05:11.878Z,99295.03
2022-12-24T03:07:52.840Z,99297.50
2022-12-24T03:10:29.238Z,99302.73
2022-12-24T03:13:05.618Z,99310.37
2022-12-24T03:15:38.145Z,99314.21
2022-12-24T03:18:12.439Z,99323.87
2022-12-24T03:20:47.495Z,99328.86
2022-12-24T03:23:18.419Z,99328.66
2022-12-24T03:25:49.268Z,99325.05
2022-12-24T03:28:25.602Z,99324.17
2022-12-24T03:30:56.877Z,99322.58
2022-12-24T03:33:27.648Z,99323.04
2022-12-24T03:35:58.361Z,99319.63
2022-12-24T03:38:29.115Z,99324.19
2022-12-24T03:40:59.847Z,99325.73
2022-12-24T03:43:30.821Z,99331.42
2022-12-24T03:46:04.625Z,99331.70
2022-12-24T03:48:36.558Z,99332.86
2022-12-24T03:51:18.035Z,99333.13
2022-12-24T03:53:48.792Z,99330.77
2022-12-24T03:56:19.583Z,99340.88
2022-12-24T03:58:50.797Z,99342.67
2022-12-24T04:01:21.746Z,99343.80
2022-12-24T04:03:52.672Z,99342.34
2022-12-24T04:06:23.316Z,99346.06
2022-12-24T04:08:54.044Z,99349.36
2022-12-24T04:11:24.741Z,99351.83
2022-12-24T04:13:55.391Z,99352.33
2022-12-24T04:16:26.640Z,99358.64
2022-12-24T04:18:57.344Z,99359.89
2022-12-24T04:21:28.120Z,99358.52
2022-12-24T04:23:58.842Z,99361.48
2022-12-24T04:26:29.516Z,99364.89
2022-12-24T04:29:00.367Z,99363.41
2022-12-24T04:31:31.026Z,99366.75
2022-12-24T04:34:01.760Z,99372.23
2022-12-24T04:36:32.682Z,99372.08
2022-12-24T04:39:03.385Z,99381.71
2022-12-24T04:41:34.654Z,99385.17
2022-12-24T04:44:05.340Z,99395.48
2022-12-24T04:46:36.791Z,99395.88
2022-12-24T04:49:07.528Z,99398.27
2022-12-24T04:51:38.343Z,99395.86
2022-12-24T04:54:09.099Z,99400.86
2022-12-24T04:56:39.841Z,99405.40
2022-12-24T04:59:10.654Z,99410.95
2022-12-24T05:01:41.589Z,99415.67
2022-12-24T05:04:12.950Z,99425.16
2022-12-24T05:06:43.630Z,99427.52
2022-12-24T05:09:14.249Z,99431.36
2022-12-24T05:11:44.968Z,99443.39
2022-12-24T05:14:15.740Z,99447.45
2022-12-24T05:16:46.400Z,99449.38
2022-12-24T05:19:17.213Z,99454.05
2022-12-24T05:22:08.658Z,99458.27
2022-12-24T05:24:57.174Z,99469.38
2022-12-24T05:27:28.039Z,99478.15
2022-12-24T05:29:58.636Z,99482.78
2022-12-24T05:32:29.824Z,99484.59
2022-12-24T05:35:00.495Z,99483.94
2022-12-24T05:37:31.194Z,99482.56
2022-12-24T05:40:01.861Z,99487.23
2022-12-24T05:42:32.619Z,99483.83
2022-12-24T05:45:03.277Z,99488.21
2022-12-24T05:47:41.253Z,99491.52
2022-12-24T05:50:14.772Z,99501.55
2022-12-24T05:52:45.456Z,99498.60
2022-12-24T05:55:16.372Z,99499.58
2022-12-24T05:57:47.205Z,99505.70
2022-12-24T06:00:19.821Z,99511.39
2022-12-24T06:02:50.574Z,99508.14
2022-12-24T06:05:21.399Z,99508.47
2022-12-24T06:07:52.057Z,99514.58
2022-12-24T06:10:22.805Z,99521.11
2022-12-24T06:12:53.514Z,99528.41
2022-12-24T06:15:24.453Z,99534.95
2022-12-24T06:17:55.105Z,99545.70
2022-12-24T06:20:25.838Z,99552.50
2022-12-24T06:22:56.512Z,99559.80
2022-12-24T06:25:27.214Z,99558.32
2022-12-24T06:27:57.986Z,99560.61
2022-12-24T06:30:28.715Z,99565.58
2022-12-24T06:32:59.377Z,99572.20
2022-12-24T06:35:32.008Z,99577.19
2022-12-24T06:38:02.723Z,99581.63
2022-12-24T06:40:33.438Z,99582.13
2022-12-24T06:43:04.095Z,99582.02
2022-12-24T06:45:34.805Z,99584.81
2022-12-24T06:48:06.565Z,99584.80
2022-12-24T06:50:37.392Z,99583.15
2022-12-24T06:53:08.372Z,99588.54
2022-12-24T06:55:39.158Z,99598.33
2022-12-24T06:58:09.894Z,99605.63
2022-12-24T07:00:40.968Z,99609.74
2022-12-24T07:03:12.796Z,99616.05
2022-12-24T07:05:43.787Z,99621.60
2022-12-24T07:08:14.437Z,99624.63
2022-12-24T07:10:50.570Z,99635.07
2022-12-24T07:13:24.659Z,99631.49
2022-12-24T07:16:01.388Z,99635.56
2022-12-24T07:18:32.179Z,99639.30
2022-12-24T07:21:03.834Z,99644.63
2022-12-24T07:23:34.577Z,99653.96
2022-12-24T07:26:06.926Z,99660.77
2022-12-24T07:28:37.670Z,99661.10
2022-12-24T07:31:08.458Z,99670.88
2022-12-24T07:33:39.194Z,99671.65
2022-12-24T07:36:15.543Z,99668.78
2022-12-24T07:38:46.188Z,99675.65
2022-12-24T07:41:17.105Z,99681.25
2022-12-24T07:43:48.054Z,99685.80
2022-12-24T07:46:18.826Z,99689.54
2022-12-24T07:48:49.538Z,99699.04
2022-12-24T07:51:20.145Z,99701.52
2022-12-24T07:53:50.793Z,99706.34
2022-12-24T07:56:21.493Z,99703.70
2022-12-24T07:58:52.916Z,99704.30
2022-12-24T08:01:23.991Z,99709.46
2022-12-24T08:03:55.669Z,99711.94
2022-12-24T08:06:26.665Z,99713.41
2022-12-24T08:08:57.401Z,99716.92
2022-12-24T08:11:28.153Z,99722.48
2022-12-24T08:13:58.770Z,99726.43
2022-12-24T08:16:29.609Z,99730.37
2022-12-24T08:19:00.486Z,99733.62
2022-12-24T08:21:31.114Z,99740.98
2022-12-24T08:24:01.752Z,99741.52
2022-12-24T08:26:32.369Z,99748.77
2022-12-24T08:29:05.039Z,99753.73
2022-12-24T08:31:36.485Z,99760.09
2022-12-24T08:34:09.072Z,99759.27
2022-12-24T08:36:39.687Z,99770.90
2022-12-24T08:39:11.107Z,99776.92
2022-12-24T08:41:41.780Z,99784.60
2022-12-24T08:44:12.375Z,99783.72
2022-12-24T08:46:43.349Z,99789.70
2022-12-24T08:49:14.166Z,99798.05
2022-12-24T08:51:44.766Z,99804.87
2022-12-24T08:54:15.698Z,99808.79
2022-12-24T08:56:46.336Z,99811.09
2022-12-24T08:59:17.137Z,99820.38
2022-12-24T09:01:48.069Z,99822.98
2022-12-24T09:04:18.974Z,99825.66
2022-12-24T09:06:50.031Z,99830.63
2022-12-24T09:09:20.993Z,99832.39
2022-12-24T09:11:51.706Z,99831.30
2022-12-24T09:14:22.300Z,99836.96
2022-12-24T09:16:53.092Z,99836.94
2022-12-24T09:19:24.087Z,99836.80
2022-12-24T09:21:54.807Z,99840.36
2022-12-24T09:24:25.435Z,99845.16
2022-12-24T09:26:58.191Z,99847.25
2022-12-24T09:29:29.132Z,99850.17
2022-12-24T09:32:00.269Z,99856.98
2022-12-24T09:34:31.152Z,99856.67
2022-12-24T09:37:03.196Z,99861.25
2022-12-24T09:39:34.227Z,99865.05
2022-12-24T09:42:17.751Z,99869.80
2022-12-24T09:44:53.274Z,99872.80
2022-12-24T09:47:30.310Z,99879.58
2022-12-24T09:50:04.034Z,99879.88
2022-12-24T09:52:39.405Z,99880.89
2022-12-24T09:55:28.183Z,99887.66
2022-12-24T09:58:01.991Z,99883.55
2022-12-24T10:00:34.416Z,99886.11
2022-12-24T10:03:14.457Z,99898.40
2022-12-24T10:05:52.199Z,99897.80
2022-12-24T10:08:32.808Z,99901.05
2022-12-24T10:11:09.008Z,99902.11
2022-12-24T10:13:51.861Z,99905.84
2022-12-24T10:16:30.455Z,99907.52
2022-12-24T10:19:03.907Z,99910.77
2022-12-24T10:21:43.622Z,99917.88
2022-12-24T10:24:22.569Z,99915.98
2022-12-24T10:26:58.738Z,99923.77
2022-12-24T10:29:33.334Z,99922.95
2022-12-24T10:32:17.714Z,99924.17
2022-12-24T10:34:53.756Z,99928.34
2022-12-24T10:37:28.549Z,99930.05
2022-12-24T10:40:01.921Z,99929.27
2022-12-24T10:42:50.105Z,99933.63
2022-12-24T10:45:25.466Z,99933.24
2022-12-24T10:47:59.774Z,99931.76
2022-12-24T10:50:37.119Z,99929.53
2022-12-24T10:53:18.982Z,99940.33
2022-12-24T10:55:50.306Z,99944.19
2022-12-24T10:58:22.097Z,99942.14
2022-12-24T11:00:56.597Z,99944.77
2022-12-24T11:03:32.763Z,99950.38
2022-12-24T11:06:10.125Z,99950.48
2022-12-24T11:08:42.746Z,99954.49
2022-12-24T11:11:13.216Z,99960.17
2022-12-24T11:13:47.175Z,99964.64
2022-12-24T11:16:25.691Z,99967.23
2022-12-24T11:18:56.094Z,99964.09
2022-12-24T11:21:29.625Z,99967.06
2022-12-24T11:24:01.826Z,99969.64
2022-12-24T11:26:33.689Z,99974.91
2022-12-24T11:29:21.703Z,99980.52
2022-12-24T11:31:53.677Z,99982.60
2022-12-24T11:34:30.720Z,99971.19
2022-12-24T11:37:17.199Z,99987.05
2022-12-24T11:39:51.509Z,99998.09
2022-12-24T11:42:32.464Z,100003.25
2022-12-24T11:45:05.778Z,100006.48
2022-12-24T11:47:38.525Z,100006.10
2022-12-24T11:50:29.291Z,100005.66
2022-12-24T11:53:01.889Z,100008.14
2022-12-24T11:55:45.187Z,100016.92
2022-12-24T11:58:26.896Z,100020.02
2022-12-24T12:01:10.219Z,100020.80
2022-12-24T12:03:49.551Z,100021.74
2022-12-24T12:06:32.525Z,100022.58
2022-12-24T12:09:07.494Z,100031.95
2022-12-24T12:11:44.043Z,100028.04
2022-12-24T12:14:21.518Z,100028.88
2022-12-24T12:17:05.252Z,100028.98
2022-12-24T12:19:43.469Z,100028.59
2022-12-24T12:22:25.598Z,100032.48
2022-12-24T12:25:00.892Z,100034.99
2022-12-24T12:27:37.565Z,100037.02
2022-12-24T12:30:17.831Z,100035.73
2022-12-24T12:32:53.501Z,100038.36
2022-12-24T12:35:30.435Z,100035.98
2022-12-24T12:38:05.460Z,100036.31
2022-12-24T12:41:10.938Z,100035.21
2022-12-24T12:44:12.193Z,100034.86
2022-12-24T12:46:57.144Z,100037.94
2022-12-24T12:49:44.309Z,100038.52
2022-12-24T12:52:30.062Z,100040.16
2022-12-24T12:55:20.525Z,100042.23
2022-12-24T12:58:00.983Z,100046.45
2022-12-24T13:00:37.214Z,100046.84
2022-12-24T13:03:35.711Z,100042.31
2022-12-24T13:06:35.129Z,100042.98
2022-12-24T13:09:49.736Z,100043.98
2022-12-24T13:12:42.971Z,100045.20
2022-12-24T13:15:38.428Z,100050.59
2022-12-24T13:18:36.697Z,100053.63
2022-12-24T13:21:14.933Z,100051.61
2022-12-24T13:23:45.941Z,100054.02
2022-12-24T13:26:18.554Z,100053.95
2022-12-24T13:28:47.577Z,100055.14
2022-12-24T13:31:31.548Z,100054.17
2022-12-24T13:34:04.481Z,100049.64
2022-12-24T13:37:05.281Z,100052.59
2022-12-24T13:40:10.743Z,100044.16
2022-12-24T13:42:52.637Z,100058.15
2022-12-24T13:45:52.399Z,100062.23
2022-12-24T13:48:32.526Z,100062.77
2022-12-24T13:51:19.401Z,100065.75
2022-12-24T13:53:58.754Z,100065.20
2022-12-24T13:56:32.734Z,100064.65
2022-12-24T13:59:25.218Z,100070.82
2022-12-24T14:01:57.715Z,100068.27
2022-12-24T14:04:30.097Z,100069.98
2022-12-24T14:07:03.897Z,100074.25
2022-12-24T14:09:35.455Z,100076.00
2022-12-24T14:12:34.164Z,100076.38
2022-12-24T14:18:05.596Z,100086.15
2022-12-24T14:20:37.675Z,100091.81
2022-12-24T14:23:25.122Z,100094.45
2022-12-24T14:25:56.098Z,100099.25
2022-12-24T14:28:37.806Z,100102.09
2022-12-24T14:31:17.939Z,100104.55
2022-12-24T14:33:49.281Z,100111.32
2022-12-24T14:36:24.025Z,100114.77
2022-12-24T14:38:54.742Z,100120.13
2022-12-24T14:41:43.960Z,100127.11
2022-12-24T14:44:29.711Z,100128.79
2022-12-24T14:47:18.078Z,100130.42
2022-12-24T14:50:04.940Z,100134.85
2022-12-24T14:55:41.497Z,100139.33
2022-12-24T14:58:26.011Z,100142.75
2022-12-24T15:00:58.936Z,100153.60
2022-12-24T15:03:32.172Z,100158.86
2022-12-24T15:06:07.980Z,100159.34
2022-12-24T15:08:41.593Z,100159.14
2022-12-24T15:11:18.026Z,100157.35
2022-12-24T15:13:53.208Z,100159.15
2022-12-24T15:16:28.227Z,100167.27
2022-12-24T15:19:02.281Z,100165.86
2022-12-24T15:21:37.784Z,100178.32
2022-12-24T15:24:26.797Z,100181.42
2022-12-24T15:26:57.868Z,100184.03
2022-12-24T15:29:30.917Z,100186.88
2022-12-24T15:32:04.848Z,100191.86
2022-12-24T15:34:41.565Z,100190.79
2022-12-24T15:37:19.291Z,100196.70
2022-12-24T15:39:56.676Z,100199.20
2022-12-24T15:42:28.971Z,100190.15
2022-12-24T15:45:03.820Z,100204.95
2022-12-24T15:47:38.714Z,100200.22
2022-12-24T15:50:19.696Z,100203.59
2022-12-24T15:53:18.566Z,100205.00
2022-12-24T15:55:45.512Z,100210.21
2022-12-24T15:58:28.421Z,100210.57
2022-12-24T16:01:28.296Z,100210.13
2022-12-24T16:04:01.172Z,100226.88
2022-12-24T16:06:50.369Z,100256.60
2022-12-24T16:09:46.288Z,100251.30
2022-12-24T16:12:22.149Z,100253.41
2022-12-24T16:14:56.434Z,100257.02
2022-12-24T16:17:29.951Z,100255.05
2022-12-24T16:20:05.324Z,100253.99
2022-12-24T16:22:36.301Z,100258.96
2022-12-24T16:25:26.017Z,100264.13
2022-12-24T16:28:00.312Z,100266.91
2022-12-24T16:30:31.810Z,100265.73
2022-12-24T16:33:02.377Z,100263.27
2022-12-24T16:35:36.592Z,100265.55
2022-12-24T16:38:07.502Z,100275.10
2022-12-24T16:40:38.141Z,100278.50
2022-12-24T16:43:27.007Z,100285.31
2022-12-24T16:46:04.003Z,100288.11
2022-12-24T16:48:37.446Z,100289.58
2022-12-24T16:51:08.509Z,100296.43
2022-12-24T16:53:39.264Z,100302.12
2022-12-24T16:56:10.744Z,100299.70
2022-12-24T16:58:41.422Z,100304.78
2022-12-24T17:01:12.527Z,100302.25
2022-12-24T17:03:43.395Z,100301.34
2022-12-24T17:06:13.985Z,100303.81
2022-12-24T17:08:44.767Z,100306.47
2022-12-24T17:11:15.453Z,100304.17
2022-12-24T17:13:46.180Z,100308.13
2022-12-24T17:16:17.131Z,100315.59
2022-12-24T17:18:47.823Z,100324.11
2022-12-24T17:21:18.955Z,100329.73
2022-12-24T17:23:49.692Z,100333.77
2022-12-24T17:26:20.381Z,100335.55
2022-12-24T17:28:53.694Z,100340.47
2022-12-24T17:31:25.536Z,100331.71
2022-12-24T17:33:56.384Z,100325.52
2022-12-24T17:36:27.423Z,100318.83
2022-12-24T17:38:58.112Z,100329.03
2022-12-24T17:41:28.942Z,100332.95
2022-12-24T17:44:01.127Z,100336.73
2022-12-24T17:46:31.990Z,100340.34
2022-12-24T17:49:03.161Z,100350.70
2022-12-24T17:51:35.153Z,100344.04
2022-12-24T17:54:08.517Z,100340.13
2022-12-24T17:56:39.197Z,100338.41
2022-12-24T17:59:09.844Z,100339.95
2022-12-24T18:01:40.698Z,100344.61
2022-12-24T18:04:11.692Z,100355.23
2022-12-24T18:06:49.014Z,100359.88
2022-12-24T18:09:20.396Z,100362.88
2022-12-24T18:11:54.573Z,100365.30
2022-12-24T18:14:25.264Z,100372.13
2022-12-24T18:16:55.956Z,100373.86
2022-12-24T18:19:26.791Z,100380.02
2022-12-24T18:21:57.524Z,100368.84
2022-12-24T18:24:28.669Z,100368.01
2022-12-24T18:26:59.355Z,100373.85
2022-12-24T18:29:30.026Z,100384.86
2022-12-24T18:32:00.776Z,100381.94
2022-12-24T18:34:31.394Z,100392.25
2022-12-24T18:37:02.246Z,100386.30
2022-12-24T18:39:32.871Z,100387.81
2022-12-24T18:42:03.622Z,100389.55
2022-12-24T18:44:34.296Z,100388.75
2022-12-24T18:47:05.086Z,100396.13
2022-12-24T18:49:36.765Z,100395.24
2022-12-24T18:52:09.279Z,100401.11
2022-12-24T18:54:40.482Z,100397.31
2022-12-24T18:57:11.149Z,100407.34
2022-12-24T18:59:42.177Z,100399.46
2022-12-24T19:02:13.179Z,100400.77
2022-12-24T19:04:44.358Z,100404.29
2022-12-24T19:07:15.103Z,100402.27
2022-12-24T19:09:48.506Z,100401.67
2022-12-24T19:12:19.411Z,100397.80
2022-12-24T19:14:50.203Z,100403.63
2022-12-24T19:17:20.921Z,100406.80
2022-12-24T19:19:53.123Z,100413.19
2022-12-24T19:22:23.715Z,100423.23
2022-12-24T19:24:54.425Z,100424.38
2022-12-24T19:27:25.176Z,100424.02
2022-12-24T19:29:55.880Z,100428.16
2022-12-24T19:32:26.645Z,100429.96
2022-12-24T19:34:57.232Z,100432.16
2022-12-24T19:37:27.885Z,100436.21
2022-12-24T19:39:58.500Z,100435.30
2022-12-24T19:42:29.357Z,100442.58
2022-12-24T19:45:00.146Z,100453.04
2022-12-24T19:47:31.062Z,100457.80
2022-12-24T19:50:02.020Z,100457.23
2022-12-24T19:52:34.890Z,100462.90
2022-12-24T19:55:09.271Z,100462.48
2022-12-24T19:57:44.291Z,100467.24
2022-12-24T20:00:26.046Z,100463.20
2022-12-24T20:02:56.802Z,100464.98
2022-12-24T20:05:30.264Z,100467.91
2022-12-24T20:08:01.183Z,100465.67
2022-12-24T20:10:31.875Z,100468.73
2022-12-24T20:13:06.153Z,100474.66
2022-12-24T20:15:40.761Z,100480.64
2022-12-24T20:18:13.540Z,100487.29
2022-12-24T20:20:45.740Z,100490.77
2022-12-24T20:23:17.748Z,100492.58
2022-12-24T20:25:58.862Z,100493.60
2022-12-24T20:28:31.056Z,100494.89
2022-12-24T20:31:01.992Z,100491.96
2022-12-24T20:33:32.775Z,100486.30
2022-12-24T20:36:05.923Z,100483.04
2022-12-24T20:38:37.955Z,100485.20
2022-12-24T20:41:14.166Z,100483.22
2022-12-24T20:43:48.571Z,100496.89
2022-12-24T20:46:24.288Z,100498.09
2022-12-24T20:48:56.054Z,100492.39
2022-12-24T20:51:28.811Z,100490.09
2022-12-24T20:54:01.472Z,100491.54
2022-12-24T20:56:32.364Z,100493.83
2022-12-24T20:59:10.859Z,100487.81
2022-12-24T21:01:41.683Z,100484.40
2022-12-24T21:04:12.859Z,100486.48
2022-12-24T21:06:46.268Z,100489.03
2022-12-24T21:09:16.914Z,100488.02
2022-12-24T21:12:06.683Z,100491.06
2022-12-24T21:14:37.389Z,100487.17
2022-12-24T21:17:13.568Z,100495.36
2022-12-24T21:19:46.215Z,100499.66
2022-12-24T21:22:17.028Z,100500.84
2022-12-24T21:24:47.738Z,100503.31
2022-12-24T21:27:18.459Z,100504.35
2022-12-24T21:29:49.320Z,100502.10
2022-12-24T21:32:19.993Z,100509.48
2022-12-24T21:34:50.671Z,100505.73
2022-12-24T21:37:21.775Z,100504.17
2022-12-24T21:39:52.885Z,100505.02
2022-12-24T21:42:23.629Z,100509.33
2022-12-24T21:44:54.590Z,100509.28
2022-12-24T21:47:25.801Z,100513.73
2022-12-24T21:50:13.701Z,100510.33
2022-12-24T21:52:44.369Z,100518.06
2022-12-24T21:55:15.008Z,100522.28
2022-12-24T21:57:54.639Z,100524.61
2022-12-24T22:00:26.983Z,100525.08
2022-12-24T22:02:59.672Z,100523.05
2022-12-24T22:05:33.376Z,100531.28
2022-12-24T22:08:22.668Z,100542.02
2022-12-24T22:11:25.408Z,100545.15
2022-12-24T22:13:56.140Z,100542.58
2022-12-24T22:16:27.087Z,100542.77
2022-12-24T22:18:57.860Z,100540.18
2022-12-24T22:21:28.454Z,100541.27
2022-12-24T22:23:59.715Z,100541.84
2022-12-24T22:26:30.382Z,100551.25
2022-12-24T22:29:01.034Z,100560.75
2022-12-24T22:31:32.499Z,100568.90
2022-12-24T22:34:03.566Z,100566.41
2022-12-24T22:36:34.761Z,100564.94
2022-12-24T22:39:05.619Z,100555.98
2022-12-24T22:41:36.318Z,100565.53
2022-12-24T22:44:06.960Z,100568.98
2022-12-24T22:46:37.742Z,100570.10
2022-12-24T22:49:08.550Z,100578.51
2022-12-24T22:51:39.194Z,100596.11
2022-12-24T22:54:09.854Z,100594.22
2022-12-24T22:56:41.553Z,100586.96
2022-12-24T22:59:15.309Z,100585.41
2022-12-24T23:01:48.133Z,100591.55
2022-12-24T23:04:18.854Z,100598.56
2022-12-24T23:06:49.622Z,100601.75
2022-12-24T23:09:20.637Z,100606.33
2022-12-24T23:11:51.328Z,100610.02
2022-12-24T23:14:41.188Z,100603.59
2022-12-24T23:17:12.835Z,100609.56
2022-12-24T23:19:43.628Z,100609.00
2022-12-24T23:22:14.409Z,100608.67
2022-12-24T23:24:45.503Z,100622.96
2022-12-24T23:27:16.279Z,100627.21
2022-12-24T23:29:47.056Z,100626.19
2022-12-24T23:32:17.737Z,100623.69
2022-12-24T23:34:48.571Z,100622.95
2022-12-24T23:37:19.176Z,100618.48
2022-12-24T23:39:49.768Z,100617.58
2022-12-24T23:42:20.498Z,100615.65
2022-12-24T23:44:52.220Z,100617.75
2022-12-24T23:47:22.978Z,100617.46
2022-12-24T23:49:53.691Z,100639.11
2022-12-24T23:52:24.309Z,100636.95
2022-12-24T23:54:54.940Z,100645.02
2022-12-24T23:57:25.628Z,100639.34
2022-12-24T23:59:56.265Z,100631.59
